createdAt,value
2018-09-04T00:01:06.457Z,100178.00
2018-09-04T00:03:34.926Z,100174.98
2018-09-04T00:06:03.362Z,100175.39
2018-09-04T00:08:31.998Z,100169.99
2018-09-04T00:11:00.470Z,100169.98
2018-09-04T00:13:28.949Z,100168.38
2018-09-04T00:15:57.415Z,100162.88
2018-09-04T00:18:25.860Z,100159.27
2018-09-04T00:20:54.349Z,100166.05
2018-09-04T00:23:22.864Z,100160.79
2018-09-04T00:25:51.357Z,100161.52
2018-09-04T00:28:20.029Z,100158.31
2018-09-04T00:30:48.672Z,100151.78
2018-09-04T00:33:17.313Z,100160.38
2018-09-04T00:35:45.934Z,100164.00
2018-09-04T00:38:14.557Z,100163.09
2018-09-04T00:40:43.230Z,100161.11
2018-09-04T00:43:11.849Z,100156.98
2018-09-04T00:45:40.541Z,100155.84
2018-09-04T00:48:09.132Z,100159.84
2018-09-04T00:50:39.754Z,100154.75
2018-09-04T00:53:08.747Z,100160.83
2018-09-04T00:55:37.344Z,100159.54
2018-09-04T00:58:06.271Z,100158.36
2018-09-04T01:00:34.892Z,100160.28
2018-09-04T01:03:03.390Z,100156.16
2018-09-04T01:05:31.800Z,100155.42
2018-09-04T01:08:00.278Z,100160.33
2018-09-04T01:10:28.977Z,100157.85
2018-09-04T01:12:57.704Z,100157.54
2018-09-04T01:15:26.305Z,100159.47
2018-09-04T01:17:55.067Z,100156.80
2018-09-04T01:20:23.660Z,100156.16
2018-09-04T01:22:52.403Z,100161.66
2018-09-04T01:25:21.029Z,100167.66
2018-09-04T01:27:49.726Z,100167.97
2018-09-04T01:30:18.450Z,100163.07
2018-09-04T01:32:47.077Z,100161.46
2018-09-04T01:35:15.721Z,100163.94
2018-09-04T01:37:44.329Z,100167.46
2018-09-04T01:40:12.929Z,100167.04
2018-09-04T01:42:41.625Z,100170.34
2018-09-04T01:45:10.250Z,100164.89
2018-09-04T01:47:38.858Z,100165.25
2018-09-04T01:50:07.599Z,100170.38
2018-09-04T01:52:36.245Z,100171.52
2018-09-04T01:55:04.905Z,100176.37
2018-09-04T01:57:33.552Z,100178.27
2018-09-04T02:00:02.240Z,100172.73
2018-09-04T02:02:30.937Z,100171.36
2018-09-04T02:04:59.623Z,100167.56
2018-09-04T02:07:28.324Z,100165.33
2018-09-04T02:09:56.970Z,100159.33
2018-09-04T02:12:25.609Z,100172.81
2018-09-04T02:14:54.336Z,100166.30
2018-09-04T02:17:22.985Z,100160.70
2018-09-04T02:19:51.626Z,100165.33
2018-09-04T02:22:20.210Z,100168.47
2018-09-04T02:24:48.862Z,100167.88
2018-09-04T02:27:17.482Z,100167.36
2018-09-04T02:29:46.157Z,100167.33
2018-09-04T02:32:14.786Z,100160.93
2018-09-04T02:34:43.482Z,100164.31
2018-09-04T02:37:12.246Z,100158.23
2018-09-04T02:39:40.974Z,100155.22
2018-09-04T02:42:09.661Z,100153.56
2018-09-04T02:44:38.374Z,100148.63
2018-09-04T02:47:07.125Z,100151.39
2018-09-04T02:49:35.794Z,100147.45
2018-09-04T02:52:04.580Z,100145.22
2018-09-04T02:54:33.248Z,100152.39
2018-09-04T02:57:01.888Z,100148.98
2018-09-04T02:59:30.706Z,100151.18
2018-09-04T03:01:59.398Z,100150.27
2018-09-04T03:04:28.108Z,100150.23
2018-09-04T03:06:56.763Z,100148.83
2018-09-04T03:09:25.563Z,100156.66
2018-09-04T03:11:54.119Z,100156.86
2018-09-04T03:14:22.788Z,100153.95
2018-09-04T03:16:51.635Z,100155.13
2018-09-04T03:19:20.302Z,100164.42
2018-09-04T03:21:48.877Z,100162.87
2018-09-04T03:24:17.517Z,100161.59
2018-09-04T03:26:46.093Z,100166.34
2018-09-04T03:29:14.762Z,100165.37
2018-09-04T03:31:43.406Z,100166.19
2018-09-04T03:34:12.149Z,100163.39
2018-09-04T03:36:40.874Z,100162.72
2018-09-04T03:39:10.581Z,100162.63
2018-09-04T03:41:39.109Z,100161.42
2018-09-04T03:44:07.611Z,100155.28
2018-09-04T03:46:36.042Z,100156.75
2018-09-04T03:49:04.509Z,100154.95
2018-09-04T03:51:32.949Z,100153.25
2018-09-04T03:54:01.469Z,100153.64
2018-09-04T03:56:29.907Z,100151.55
2018-09-04T03:58:58.328Z,100153.00
2018-09-04T04:01:26.752Z,100150.37
2018-09-04T04:03:55.166Z,100159.43
2018-09-04T04:06:23.576Z,100165.20
2018-09-04T04:08:52.011Z,100174.28
2018-09-04T04:11:20.453Z,100175.11
2018-09-04T04:13:49.038Z,100179.56
2018-09-04T04:16:17.485Z,100187.84
2018-09-04T04:18:45.887Z,100182.65
2018-09-04T04:21:14.317Z,100180.52
2018-09-04T04:23:43.226Z,100182.17
2018-09-04T04:26:11.783Z,100180.12
2018-09-04T04:28:40.237Z,100179.84
2018-09-04T04:31:08.730Z,100178.67
2018-09-04T04:33:37.105Z,100184.61
2018-09-04T04:36:05.615Z,100181.91
2018-09-04T04:38:34.015Z,100187.37
2018-09-04T04:41:02.449Z,100186.34
2018-09-04T04:43:30.872Z,100183.37
2018-09-04T04:45:59.368Z,100183.40
2018-09-04T04:48:27.782Z,100184.99
2018-09-04T04:50:56.192Z,100183.03
2018-09-04T04:53:24.581Z,100180.80
2018-09-04T04:55:53.093Z,100180.16
2018-09-04T04:58:21.767Z,100177.97
2018-09-04T05:00:50.506Z,100178.48
2018-09-04T05:03:19.197Z,100173.56
2018-09-04T05:05:47.882Z,100178.08
2018-09-04T05:08:16.722Z,100180.63
2018-09-04T05:10:45.436Z,100179.48
2018-09-04T05:13:14.313Z,100182.81
2018-09-04T05:15:43.094Z,100186.59
2018-09-04T05:18:11.846Z,100187.86
2018-09-04T05:20:40.842Z,100190.92
2018-09-04T05:23:09.641Z,100188.92
2018-09-04T05:25:38.446Z,100186.00
2018-09-04T05:28:07.277Z,100185.83
2018-09-04T05:30:35.938Z,100183.72
2018-09-04T05:33:09.890Z,100191.66
2018-09-04T05:35:44.093Z,100195.85
2018-09-04T05:38:12.509Z,100195.47
2018-09-04T05:40:40.997Z,100200.77
2018-09-04T05:43:11.291Z,100202.66
2018-09-04T05:45:40.037Z,100206.13
2018-09-04T05:48:13.390Z,100202.34
2018-09-04T05:50:42.174Z,100205.19
2018-09-04T05:53:11.045Z,100204.02
2018-09-04T05:55:39.881Z,100209.78
2018-09-04T05:58:08.346Z,100208.81
2018-09-04T06:00:39.050Z,100206.93
2018-09-04T06:03:07.481Z,100204.02
2018-09-04T06:05:35.985Z,100206.48
2018-09-04T06:16:42.488Z,100211.83
2018-09-04T06:19:11.717Z,100213.03
2018-09-04T06:21:40.505Z,100208.56
2018-09-04T06:24:09.213Z,100210.76
2018-09-04T06:26:37.945Z,100215.62
2018-09-04T06:29:06.794Z,100204.45
2018-09-04T06:31:35.510Z,100203.16
2018-09-04T06:34:04.365Z,100210.18
2018-09-04T06:36:33.087Z,100201.45
2018-09-04T06:39:01.746Z,100208.55
2018-09-04T06:41:30.529Z,100205.16
2018-09-04T06:43:59.214Z,100209.05
2018-09-04T06:46:27.988Z,100209.95
2018-09-04T06:48:56.647Z,100211.91
2018-09-04T06:51:25.385Z,100208.18
2018-09-04T06:53:54.095Z,100206.06
2018-09-04T06:56:22.897Z,100208.33
2018-09-04T06:58:51.762Z,100206.08
2018-09-04T07:01:20.626Z,100214.41
2018-09-04T07:03:49.456Z,100216.59
2018-09-04T07:06:18.562Z,100219.96
2018-09-04T07:08:47.233Z,100218.36
2018-09-04T07:11:16.048Z,100214.73
2018-09-04T07:13:44.816Z,100219.48
2018-09-04T07:16:13.568Z,100213.15
2018-09-04T07:18:42.378Z,100214.09
2018-09-04T07:21:11.186Z,100218.37
2018-09-04T07:23:39.946Z,100218.55
2018-09-04T07:26:08.742Z,100219.97
2018-09-04T07:28:37.530Z,100220.63
2018-09-04T07:31:06.273Z,100221.63
2018-09-04T07:33:35.000Z,100218.72
2018-09-04T07:36:03.824Z,100218.72
2018-09-04T07:38:32.573Z,100215.16
2018-09-04T07:41:01.303Z,100215.33
2018-09-04T07:43:30.098Z,100216.66
2018-09-04T07:45:58.836Z,100214.50
2018-09-04T07:48:27.618Z,100216.39
2018-09-04T07:50:56.350Z,100216.48
2018-09-04T07:53:25.120Z,100221.73
2018-09-04T07:55:53.655Z,100221.55
2018-09-04T07:58:22.374Z,100222.38
2018-09-04T08:00:51.089Z,100220.44
2018-09-04T08:03:19.701Z,100222.48
2018-09-04T08:05:48.379Z,100223.19
2018-09-04T08:08:17.017Z,100212.47
2018-09-04T08:10:45.681Z,100219.39
2018-09-04T08:13:14.162Z,100217.55
2018-09-04T08:15:42.609Z,100220.39
2018-09-04T08:18:14.219Z,100235.36
2018-09-04T08:20:42.639Z,100231.27
2018-09-04T08:23:11.126Z,100231.66
2018-09-04T08:25:40.059Z,100221.00
2018-09-04T08:28:08.826Z,100219.72
2018-09-04T08:30:38.446Z,100226.44
2018-09-04T08:33:07.167Z,100219.94
2018-09-04T08:35:35.778Z,100220.45
2018-09-04T08:38:04.495Z,100223.70
2018-09-04T08:40:33.549Z,100231.91
2018-09-04T08:43:02.281Z,100230.80
2018-09-04T08:45:31.641Z,100229.20
2018-09-04T08:48:01.363Z,100225.99
2018-09-04T08:50:31.180Z,100227.86
2018-09-04T08:52:59.649Z,100227.59
2018-09-04T08:55:28.133Z,100230.42
2018-09-04T08:57:56.592Z,100229.20
2018-09-04T09:00:25.055Z,100227.19
2018-09-04T09:02:53.574Z,100232.81
2018-09-04T09:05:22.030Z,100232.72
2018-09-04T09:07:50.477Z,100230.82
2018-09-04T09:10:18.922Z,100226.66
2018-09-04T09:12:47.361Z,100225.65
2018-09-04T09:15:15.865Z,100219.98
2018-09-04T09:17:44.317Z,100214.98
2018-09-04T09:20:12.763Z,100210.09
2018-09-04T09:22:41.327Z,100212.16
2018-09-04T09:25:09.749Z,100201.47
2018-09-04T09:27:38.279Z,100209.50
2018-09-04T09:30:06.918Z,100202.14
2018-09-04T09:32:35.376Z,100208.70
2018-09-04T09:35:03.877Z,100204.98
2018-09-04T09:37:32.346Z,100205.16
2018-09-04T09:40:00.797Z,100207.70
2018-09-04T09:42:29.285Z,100203.07
2018-09-04T09:44:57.749Z,100208.02
2018-09-04T09:47:26.181Z,100215.16
2018-09-04T09:49:54.725Z,100208.46
2018-09-04T09:52:23.182Z,100199.97
2018-09-04T09:54:51.614Z,100193.23
2018-09-04T09:57:20.139Z,100194.16
2018-09-04T09:59:48.921Z,100195.06
2018-09-04T10:02:20.526Z,100194.44
2018-09-04T10:04:49.061Z,100194.50
2018-09-04T10:07:17.546Z,100199.15
2018-09-04T10:09:46.041Z,100200.34
2018-09-04T10:12:14.524Z,100196.47
2018-09-04T10:14:42.976Z,100189.70
2018-09-04T10:17:11.477Z,100186.94
2018-09-04T10:19:39.938Z,100188.12
2018-09-04T10:22:08.393Z,100179.02
2018-09-04T10:24:36.918Z,100182.52
2018-09-04T10:27:05.402Z,100186.89
2018-09-04T10:29:33.844Z,100182.13
2018-09-04T10:32:02.343Z,100183.37
2018-09-04T10:34:30.834Z,100173.41
2018-09-04T10:36:59.312Z,100173.47
2018-09-04T10:39:32.935Z,100174.34
2018-09-04T10:42:01.453Z,100175.77
2018-09-04T10:44:33.240Z,100168.19
2018-09-04T10:47:02.381Z,100171.57
2018-09-04T10:49:30.925Z,100173.55
2018-09-04T10:51:59.417Z,100165.48
2018-09-04T10:54:27.909Z,100168.61
2018-09-04T10:56:56.405Z,100167.13
2018-09-04T10:59:24.853Z,100165.50
2018-09-04T11:01:53.279Z,100164.94
2018-09-04T11:04:21.714Z,100161.29
2018-09-04T11:06:50.142Z,100153.74
2018-09-04T11:09:18.650Z,100161.28
2018-09-04T11:11:47.032Z,100158.76
2018-09-04T11:14:15.490Z,100155.78
2018-09-04T11:16:43.997Z,100159.67
2018-09-04T11:19:12.414Z,100163.52
2018-09-04T11:21:41.015Z,100161.11
2018-09-04T11:24:09.516Z,100160.48
2018-09-04T11:26:38.096Z,100155.98
2018-09-04T11:29:07.882Z,100161.86
2018-09-04T11:31:36.310Z,100165.13
2018-09-04T11:34:04.783Z,100159.92
2018-09-04T11:36:33.250Z,100149.52
2018-09-04T11:39:01.742Z,100163.31
2018-09-04T11:41:30.195Z,100155.00
2018-09-04T11:43:58.686Z,100164.10
2018-09-04T11:46:27.129Z,100157.24
2018-09-04T11:48:55.767Z,100146.88
2018-09-04T11:51:24.192Z,100149.14
2018-09-04T11:53:52.771Z,100145.25
2018-09-04T11:56:21.157Z,100149.46
2018-09-04T11:58:49.813Z,100148.85
2018-09-04T12:01:20.526Z,100146.45
2018-09-04T12:03:48.983Z,100149.38
2018-09-04T12:06:17.442Z,100146.38
2018-09-04T12:08:45.885Z,100151.06
2018-09-04T12:11:14.306Z,100160.03
2018-09-04T12:13:42.748Z,100156.48
2018-09-04T12:16:11.186Z,100150.19
2018-09-04T12:18:39.629Z,100151.55
2018-09-04T12:21:12.199Z,100144.36
2018-09-04T12:23:40.906Z,100147.48
2018-09-04T12:26:10.461Z,100145.63
2018-09-04T12:28:38.895Z,100151.19
2018-09-04T12:31:07.881Z,100148.79
2018-09-04T12:33:36.317Z,100138.61
2018-09-04T12:36:04.900Z,100143.08
2018-09-04T12:38:38.768Z,100138.81
2018-09-04T12:41:11.709Z,100138.72
2018-09-04T12:43:40.201Z,100141.38
2018-09-04T12:46:08.681Z,100141.69
2018-09-04T12:48:37.214Z,100137.27
2018-09-04T12:51:05.829Z,100132.92
2018-09-04T12:53:34.730Z,100137.66
2018-09-04T12:56:03.322Z,100125.52
2018-09-04T12:58:31.736Z,100129.69
2018-09-04T13:01:00.215Z,100126.59
2018-09-04T13:03:29.565Z,100125.53
2018-09-04T13:05:58.115Z,100125.63
2018-09-04T13:08:28.229Z,100126.30
2018-09-04T13:10:56.676Z,100124.39
2018-09-04T13:13:25.230Z,100131.91
2018-09-04T13:15:55.324Z,100126.62
2018-09-04T13:18:27.865Z,100122.03
2018-09-04T13:21:01.328Z,100132.66
2018-09-04T13:23:29.951Z,100124.71
2018-09-04T13:25:58.430Z,100122.31
2018-09-04T13:28:27.220Z,100121.49
2018-09-04T13:30:55.885Z,100115.66
2018-09-04T13:33:24.500Z,100113.41
2018-09-04T13:35:53.163Z,100110.48
2018-09-04T13:38:21.768Z,100111.89
2018-09-04T13:40:54.465Z,100114.08
2018-09-04T13:43:23.154Z,100114.52
2018-09-04T13:45:51.825Z,100110.77
2018-09-04T13:48:25.598Z,100107.48
2018-09-04T13:50:54.203Z,100104.16
2018-09-04T13:53:22.850Z,100100.16
2018-09-04T13:55:51.425Z,100108.16
2018-09-04T13:58:20.045Z,100105.24
2018-09-04T14:00:48.642Z,100103.86
2018-09-04T14:03:17.071Z,100095.81
2018-09-04T14:05:45.514Z,100100.77
2018-09-04T14:08:13.970Z,100091.88
2018-09-04T14:10:42.496Z,100091.27
2018-09-04T14:13:11.043Z,100095.44
2018-09-04T14:15:39.537Z,100091.47
2018-09-04T14:18:08.055Z,100096.42
2018-09-04T14:20:36.572Z,100092.48
2018-09-04T14:23:05.088Z,100094.11
2018-09-04T14:25:33.647Z,100089.36
2018-09-04T14:28:02.025Z,100091.77
2018-09-04T14:30:30.555Z,100095.53
2018-09-04T14:32:59.038Z,100096.35
2018-09-04T14:35:27.639Z,100099.16
2018-09-04T14:37:56.191Z,100085.23
2018-09-04T14:40:24.904Z,100091.53
2018-09-04T14:42:53.627Z,100095.28
2018-09-04T14:45:22.271Z,100097.07
2018-09-04T14:47:51.009Z,100097.23
2018-09-04T14:50:19.740Z,100094.69
2018-09-04T14:52:50.430Z,100089.64
2018-09-04T14:55:18.921Z,100096.95
2018-09-04T14:57:48.532Z,100091.91
2018-09-04T15:00:16.997Z,100095.95
2018-09-04T15:02:45.459Z,100091.31
2018-09-04T15:05:13.865Z,100089.45
2018-09-04T15:07:42.304Z,100092.50
2018-09-04T15:10:10.763Z,100089.88
2018-09-04T15:12:39.191Z,100100.98
2018-09-04T15:15:08.167Z,100093.73
2018-09-04T15:17:36.653Z,100100.60
2018-09-04T15:20:06.345Z,100094.95
2018-09-04T15:22:34.773Z,100094.61
2018-09-04T15:25:03.217Z,100087.00
2018-09-04T15:27:31.667Z,100088.73
2018-09-04T15:30:00.086Z,100083.56
2018-09-04T15:32:28.515Z,100094.34
2018-09-04T15:34:57.931Z,100096.17
2018-09-04T15:37:26.372Z,100095.58
2018-09-04T15:39:54.779Z,100096.26
2018-09-04T15:42:23.254Z,100088.98
2018-09-04T15:44:51.678Z,100089.53
2018-09-04T15:47:20.134Z,100096.43
2018-09-04T15:49:48.954Z,100089.88
2018-09-04T15:52:17.947Z,100091.59
2018-09-04T15:54:46.338Z,100098.25
2018-09-04T15:57:15.211Z,100095.23
2018-09-04T15:59:43.702Z,100094.89
2018-09-04T16:02:12.181Z,100098.25
2018-09-04T16:04:40.616Z,100093.46
2018-09-04T16:07:09.102Z,100098.95
2018-09-04T16:09:37.864Z,100091.42
2018-09-04T16:12:06.375Z,100089.91
2018-09-04T16:14:34.863Z,100089.95
2018-09-04T16:17:03.368Z,100085.34
2018-09-04T16:19:31.857Z,100090.97
2018-09-04T16:22:00.324Z,100092.08
2018-09-04T16:24:28.806Z,100092.45
2018-09-04T16:26:57.228Z,100088.70
2018-09-04T16:29:25.697Z,100091.06
2018-09-04T16:31:54.139Z,100100.72
2018-09-04T16:34:22.662Z,100103.88
2018-09-04T16:36:51.058Z,100100.90
2018-09-04T16:39:19.564Z,100104.25
2018-09-04T16:41:48.053Z,100109.80
2018-09-04T16:44:28.213Z,100109.58
2018-09-04T16:46:56.680Z,100109.16
2018-09-04T16:49:26.561Z,100111.79
2018-09-04T16:51:56.714Z,100114.30
2018-09-04T16:54:26.129Z,100122.14
2018-09-04T16:56:54.993Z,100124.18
2018-09-04T16:59:23.772Z,100122.94
2018-09-04T17:01:52.503Z,100128.70
2018-09-04T17:04:21.210Z,100129.57
2018-09-04T17:06:53.247Z,100134.19
2018-09-04T17:09:22.095Z,100132.78
2018-09-04T17:11:50.804Z,100135.97
2018-09-04T17:14:19.677Z,100137.41
2018-09-04T17:16:48.434Z,100140.04
2018-09-04T17:19:17.216Z,100143.43
2018-09-04T17:21:45.977Z,100144.66
2018-09-04T17:24:14.804Z,100145.45
2018-09-04T17:26:43.546Z,100146.11
2018-09-04T17:29:12.298Z,100148.13
2018-09-04T17:31:41.009Z,100147.91
2018-09-04T17:34:09.649Z,100147.46
2018-09-04T17:36:38.414Z,100153.75
2018-09-04T17:39:08.609Z,100154.38
2018-09-04T17:41:37.453Z,100162.14
2018-09-04T17:47:10.413Z,100173.57
2018-09-04T17:49:39.061Z,100170.30
2018-09-04T17:52:07.706Z,100177.81
2018-09-04T17:54:36.394Z,100172.02
2018-09-04T17:57:05.302Z,100173.75
2018-09-04T17:59:34.181Z,100168.66
2018-09-04T18:02:03.014Z,100173.45
2018-09-04T18:04:31.938Z,100168.28
2018-09-04T18:07:00.800Z,100168.28
2018-09-04T18:09:29.630Z,100169.68
2018-09-04T18:11:58.479Z,100175.63
2018-09-04T18:14:27.627Z,100180.21
2018-09-04T18:16:56.438Z,100179.65
2018-09-04T18:19:38.084Z,100181.94
2018-09-04T18:22:07.012Z,100177.99
2018-09-04T18:24:35.737Z,100182.84
2018-09-04T18:27:04.520Z,100178.70
2018-09-04T18:29:33.307Z,100185.95
2018-09-04T18:32:02.069Z,100184.14
2018-09-04T18:34:30.831Z,100193.98
2018-09-04T18:36:59.642Z,100190.84
2018-09-04T18:39:28.426Z,100193.04
2018-09-04T18:41:57.180Z,100199.98
2018-09-04T18:44:28.030Z,100204.30
2018-09-04T18:46:56.821Z,100200.59
2018-09-04T18:49:25.675Z,100208.05
2018-09-04T18:51:54.966Z,100215.29
2018-09-04T18:54:23.715Z,100220.00
2018-09-04T18:56:52.504Z,100223.13
2018-09-04T18:59:39.279Z,100230.00
2018-09-04T19:02:07.987Z,100227.30
2018-09-04T19:04:36.687Z,100224.86
2018-09-04T19:07:05.531Z,100226.77
2018-09-04T19:09:34.194Z,100229.06
2018-09-04T19:12:02.622Z,100223.75
2018-09-04T19:14:32.221Z,100229.59
2018-09-04T19:17:00.990Z,100230.72
2018-09-04T19:19:29.849Z,100230.55
2018-09-04T19:21:58.686Z,100226.34
2018-09-04T19:24:27.505Z,100230.91
2018-09-04T19:26:56.433Z,100232.07
2018-09-04T19:29:25.153Z,100232.12
2018-09-04T19:31:54.162Z,100238.31
2018-09-04T19:34:23.218Z,100240.75
2018-09-04T19:36:52.128Z,100242.33
2018-09-04T19:39:20.565Z,100243.19
2018-09-04T19:41:49.120Z,100247.59
2018-09-04T19:44:17.629Z,100245.88
2018-09-04T19:46:46.105Z,100249.05
2018-09-04T19:49:14.677Z,100248.91
2018-09-04T19:51:44.370Z,100245.25
2018-09-04T19:54:13.068Z,100247.42
2018-09-04T19:56:42.945Z,100248.28
2018-09-04T19:59:11.667Z,100246.30
2018-09-04T20:01:40.556Z,100247.16
2018-09-04T20:04:08.992Z,100249.67
2018-09-04T20:06:37.560Z,100253.89
2018-09-04T20:09:07.040Z,100255.34
2018-09-04T20:11:35.537Z,100246.27
2018-09-04T20:14:04.014Z,100257.14
2018-09-04T20:17:07.674Z,100256.50
2018-09-04T20:19:36.116Z,100262.09
2018-09-04T20:22:05.477Z,100259.33
2018-09-04T20:24:34.007Z,100256.98
2018-09-04T20:27:02.422Z,100258.73
2018-09-04T20:29:31.068Z,100261.00
2018-09-04T20:31:59.898Z,100260.98
2018-09-04T20:34:28.657Z,100259.77
2018-09-04T20:36:57.798Z,100267.13
2018-09-04T20:39:26.927Z,100260.15
2018-09-04T20:41:55.990Z,100256.08
2018-09-04T20:44:24.736Z,100259.87
2018-09-04T20:46:54.621Z,100259.79
2018-09-04T20:49:23.358Z,100258.45
2018-09-04T20:51:51.921Z,100262.55
2018-09-04T20:54:20.421Z,100269.14
2018-09-04T20:57:00.172Z,100267.54
2018-09-04T20:59:39.889Z,100269.64
2018-09-04T21:02:20.304Z,100265.77
2018-09-04T21:05:00.029Z,100260.75
2018-09-04T21:07:46.399Z,100260.59
2018-09-04T21:10:15.115Z,100253.53
2018-09-04T21:12:44.256Z,100252.62
2018-09-04T21:15:12.998Z,100255.19
2018-09-04T21:17:41.853Z,100258.68
2018-09-04T21:20:10.651Z,100254.36
2018-09-04T21:22:39.478Z,100253.94
2018-09-04T21:25:08.246Z,100252.33
2018-09-04T21:27:36.705Z,100257.06
2018-09-04T21:38:43.108Z,100244.53
2018-09-04T21:41:11.639Z,100253.33
2018-09-04T21:43:44.735Z,100256.75
2018-09-04T21:46:13.185Z,100259.44
2018-09-04T21:48:41.678Z,100255.43
2018-09-04T22:14:17.723Z,100248.73
2018-09-04T22:16:46.564Z,100246.30
2018-09-04T22:19:15.378Z,100241.35
2018-09-04T22:21:44.148Z,100241.06
2018-09-04T22:24:12.899Z,100244.83
2018-09-04T22:26:41.688Z,100246.88
2018-09-04T22:29:10.595Z,100252.77
2018-09-04T22:31:39.460Z,100244.56
2018-09-04T22:34:08.331Z,100248.95
2018-09-04T22:36:37.337Z,100249.02
2018-09-04T22:39:07.876Z,100254.11
2018-09-04T22:41:36.842Z,100256.41
2018-09-04T22:44:05.664Z,100246.12
2018-09-04T22:46:34.604Z,100247.39
2018-09-04T22:49:03.379Z,100246.83
2018-09-04T22:51:35.531Z,100239.45
2018-09-04T22:54:05.102Z,100241.59
2018-09-04T22:56:33.970Z,100234.05
2018-09-04T22:59:02.825Z,100250.69
2018-09-04T23:01:31.531Z,100248.88
2018-09-04T23:04:00.365Z,100241.18
2018-09-04T23:06:29.113Z,100247.71
2018-09-04T23:08:57.925Z,100251.14
2018-09-04T23:11:26.705Z,100248.15
2018-09-04T23:13:55.705Z,100251.69
2018-09-04T23:16:24.542Z,100247.56
2018-09-04T23:36:07.954Z,100238.59
2018-09-04T23:38:36.764Z,100235.08
2018-09-04T23:41:05.546Z,100236.19
2018-09-04T23:43:34.316Z,100233.15
2018-09-04T23:46:03.063Z,100235.19
2018-09-04T23:48:31.848Z,100230.19
2018-09-04T23:51:01.749Z,100233.11
2018-09-04T23:53:30.466Z,100230.91
2018-09-04T23:55:59.373Z,100237.33
2018-09-04T23:58:28.236Z,100230.05
